sensor_id;sensor_type;location;lat;lon;timestamp;temperature;humidity
66328;DHT22;53133;52.862;6.602;2023-07-30T00:01:12;17.20;99.90
66328;DHT22;53133;52.862;6.602;2023-07-30T00:03:37;17.20;99.90
66328;DHT22;53133;52.862;6.602;2023-07-30T00:06:03;17.20;99.90
66328;DHT22;53133;52.862;6.602;2023-07-30T00:08:28;17.20;99.90
66328;DHT22;53133;52.862;6.602;2023-07-30T00:10:57;17.20;99.90
66328;DHT22;53133;52.862;6.602;2023-07-30T00:13:23;17.20;99.90
66328;DHT22;53133;52.862;6.602;2023-07-30T00:15:49;17.20;99.90
66328;DHT22;53133;52.862;6.602;2023-07-30T00:18:15;17.20;99.90
66328;DHT22;53133;52.862;6.602;2023-07-30T00:20:40;17.10;99.90
66328;DHT22;53133;52.862;6.602;2023-07-30T00:23:06;17.10;99.90
66328;DHT22;53133;52.862;6.602;2023-07-30T00:25:32;17.10;99.90
66328;DHT22;53133;52.862;6.602;2023-07-30T00:27:57;17.10;99.90
66328;DHT22;53133;52.862;6.602;2023-07-30T00:30:23;17.10;99.90
66328;DHT22;53133;52.862;6.602;2023-07-30T00:32:49;17.10;99.90
66328;DHT22;53133;52.862;6.602;2023-07-30T00:35:15;17.00;99.90
66328;DHT22;53133;52.862;6.602;2023-07-30T00:37:41;17.00;99.90
66328;DHT22;53133;52.862;6.602;2023-07-30T00:40:07;17.00;99.90
66328;DHT22;53133;52.862;6.602;2023-07-30T00:42:32;17.00;99.90
66328;DHT22;53133;52.862;6.602;2023-07-30T00:44:58;17.00;99.90
66328;DHT22;53133;52.862;6.602;2023-07-30T00:47:24;17.00;99.90
66328;DHT22;53133;52.862;6.602;2023-07-30T00:49:50;17.00;99.90
66328;DHT22;53133;52.862;6.602;2023-07-30T00:52:18;17.00;99.90
66328;DHT22;53133;52.862;6.602;2023-07-30T00:54:45;17.00;99.90
66328;DHT22;53133;52.862;6.602;2023-07-30T00:57:12;17.00;99.90
66328;DHT22;53133;52.862;6.602;2023-07-30T00:59:38;16.90;99.90
66328;DHT22;53133;52.862;6.602;2023-07-30T01:02:04;16.90;99.90
66328;DHT22;53133;52.862;6.602;2023-07-30T01:04:30;16.90;99.90
66328;DHT22;53133;52.862;6.602;2023-07-30T01:06:56;16.90;99.90
66328;DHT22;53133;52.862;6.602;2023-07-30T01:09:22;16.90;99.90
66328;DHT22;53133;52.862;6.602;2023-07-30T01:11:48;16.90;99.90
66328;DHT22;53133;52.862;6.602;2023-07-30T01:14:14;16.90;99.90
66328;DHT22;53133;52.862;6.602;2023-07-30T01:16:41;16.90;99.90
66328;DHT22;53133;52.862;6.602;2023-07-30T01:19:07;16.90;99.90
66328;DHT22;53133;52.862;6.602;2023-07-30T01:21:36;16.80;99.90
66328;DHT22;53133;52.862;6.602;2023-07-30T01:24:03;16.80;99.90
66328;DHT22;53133;52.862;6.602;2023-07-30T01:27:05;16.80;99.90
66328;DHT22;53133;52.862;6.602;2023-07-30T01:29:40;16.80;99.90
66328;DHT22;53133;52.862;6.602;2023-07-30T01:32:08;16.80;99.90
66328;DHT22;53133;52.862;6.602;2023-07-30T01:34:37;16.70;99.90
66328;DHT22;53133;52.862;6.602;2023-07-30T01:37:04;16.70;99.90
66328;DHT22;53133;52.862;6.602;2023-07-30T01:39:32;16.70;99.90
66328;DHT22;53133;52.862;6.602;2023-07-30T01:41:58;16.70;99.90
66328;DHT22;53133;52.862;6.602;2023-07-30T01:44:24;16.70;99.90
66328;DHT22;53133;52.862;6.602;2023-07-30T01:46:49;16.70;99.90
66328;DHT22;53133;52.862;6.602;2023-07-30T01:49:15;16.70;99.90
66328;DHT22;53133;52.862;6.602;2023-07-30T01:51:41;16.60;99.90
66328;DHT22;53133;52.862;6.602;2023-07-30T01:54:06;16.60;99.90
66328;DHT22;53133;52.862;6.602;2023-07-30T01:56:32;16.60;99.90
66328;DHT22;53133;52.862;6.602;2023-07-30T01:58:57;16.60;99.90
66328;DHT22;53133;52.862;6.602;2023-07-30T02:01:23;16.60;99.90
66328;DHT22;53133;52.862;6.602;2023-07-30T02:03:48;16.60;99.90
66328;DHT22;53133;52.862;6.602;2023-07-30T02:06:14;16.60;99.90
66328;DHT22;53133;52.862;6.602;2023-07-30T02:08:40;16.60;99.90
66328;DHT22;53133;52.862;6.602;2023-07-30T02:11:05;16.60;99.90
66328;DHT22;53133;52.862;6.602;2023-07-30T02:13:31;16.60;99.90
66328;DHT22;53133;52.862;6.602;2023-07-30T02:15:56;16.60;99.90
66328;DHT22;53133;52.862;6.602;2023-07-30T02:18:22;16.60;99.90
66328;DHT22;53133;52.862;6.602;2023-07-30T02:20:48;16.50;99.90
66328;DHT22;53133;52.862;6.602;2023-07-30T02:23:16;16.50;99.90
66328;DHT22;53133;52.862;6.602;2023-07-30T02:25:42;16.50;99.90
66328;DHT22;53133;52.862;6.602;2023-07-30T02:28:08;16.50;99.90
66328;DHT22;53133;52.862;6.602;2023-07-30T02:30:34;16.40;99.90
66328;DHT22;53133;52.862;6.602;2023-07-30T02:33:00;16.40;99.90
66328;DHT22;53133;52.862;6.602;2023-07-30T02:35:25;16.40;99.90
66328;DHT22;53133;52.862;6.602;2023-07-30T02:37:51;16.40;99.90
66328;DHT22;53133;52.862;6.602;2023-07-30T02:40:17;16.40;99.90
66328;DHT22;53133;52.862;6.602;2023-07-30T02:42:42;16.30;99.90
66328;DHT22;53133;52.862;6.602;2023-07-30T02:45:08;16.30;99.90
66328;DHT22;53133;52.862;6.602;2023-07-30T02:47:34;16.30;99.90
66328;DHT22;53133;52.862;6.602;2023-07-30T02:49:59;16.30;99.90
66328;DHT22;53133;52.862;6.602;2023-07-30T02:52:25;16.30;99.90
66328;DHT22;53133;52.862;6.602;2023-07-30T02:54:51;16.40;99.90
66328;DHT22;53133;52.862;6.602;2023-07-30T02:57:16;16.30;99.90
66328;DHT22;53133;52.862;6.602;2023-07-30T02:59:42;16.40;99.90
66328;DHT22;53133;52.862;6.602;2023-07-30T03:02:07;16.30;99.90
66328;DHT22;53133;52.862;6.602;2023-07-30T03:04:33;16.30;99.90
66328;DHT22;53133;52.862;6.602;2023-07-30T03:06:59;16.30;99.90
66328;DHT22;53133;52.862;6.602;2023-07-30T03:09:24;16.30;99.90
66328;DHT22;53133;52.862;6.602;2023-07-30T03:11:50;16.30;99.90
66328;DHT22;53133;52.862;6.602;2023-07-30T03:14:16;16.30;99.90
66328;DHT22;53133;52.862;6.602;2023-07-30T03:16:46;16.30;99.90
66328;DHT22;53133;52.862;6.602;2023-07-30T03:19:12;16.30;99.90
66328;DHT22;53133;52.862;6.602;2023-07-30T03:21:37;16.30;99.90
66328;DHT22;53133;52.862;6.602;2023-07-30T03:24:03;16.20;99.90
66328;DHT22;53133;52.862;6.602;2023-07-30T03:26:29;16.20;99.90
66328;DHT22;53133;52.862;6.602;2023-07-30T03:28:54;16.30;99.90
66328;DHT22;53133;52.862;6.602;2023-07-30T03:31:20;16.30;99.90
66328;DHT22;53133;52.862;6.602;2023-07-30T03:33:45;16.20;99.90
66328;DHT22;53133;52.862;6.602;2023-07-30T03:36:12;16.20;99.90
66328;DHT22;53133;52.862;6.602;2023-07-30T03:38:39;16.20;99.90
66328;DHT22;53133;52.862;6.602;2023-07-30T03:41:05;16.20;99.90
66328;DHT22;53133;52.862;6.602;2023-07-30T03:43:34;16.30;99.90
66328;DHT22;53133;52.862;6.602;2023-07-30T03:46:00;16.20;99.90
66328;DHT22;53133;52.862;6.602;2023-07-30T03:48:26;16.20;99.90
66328;DHT22;53133;52.862;6.602;2023-07-30T03:50:55;16.20;99.90
66328;DHT22;53133;52.862;6.602;2023-07-30T03:53:21;16.20;99.90
66328;DHT22;53133;52.862;6.602;2023-07-30T03:55:47;16.20;99.90
66328;DHT22;53133;52.862;6.602;2023-07-30T03:58:13;16.20;99.90
66328;DHT22;53133;52.862;6.602;2023-07-30T04:00:39;16.20;99.90
66328;DHT22;53133;52.862;6.602;2023-07-30T04:03:05;16.10;99.90
66328;DHT22;53133;52.862;6.602;2023-07-30T04:05:30;16.20;99.90
66328;DHT22;53133;52.862;6.602;2023-07-30T04:07:56;16.20;99.90
66328;DHT22;53133;52.862;6.602;2023-07-30T04:10:22;16.20;99.90
66328;DHT22;53133;52.862;6.602;2023-07-30T04:12:48;16.10;99.90
66328;DHT22;53133;52.862;6.602;2023-07-30T04:15:15;16.10;99.90
66328;DHT22;53133;52.862;6.602;2023-07-30T04:17:41;16.10;99.90
66328;DHT22;53133;52.862;6.602;2023-07-30T04:20:07;16.10;99.90
66328;DHT22;53133;52.862;6.602;2023-07-30T04:22:33;16.10;99.90
66328;DHT22;53133;52.862;6.602;2023-07-30T04:24:58;16.10;99.90
66328;DHT22;53133;52.862;6.602;2023-07-30T04:27:24;16.10;99.90
66328;DHT22;53133;52.862;6.602;2023-07-30T04:29:50;16.20;99.90
66328;DHT22;53133;52.862;6.602;2023-07-30T04:32:15;16.10;99.90
66328;DHT22;53133;52.862;6.602;2023-07-30T04:34:41;16.20;99.90
66328;DHT22;53133;52.862;6.602;2023-07-30T04:37:06;16.10;99.90
66328;DHT22;53133;52.862;6.602;2023-07-30T04:39:32;16.10;99.90
66328;DHT22;53133;52.862;6.602;2023-07-30T04:41:58;16.10;99.90
66328;DHT22;53133;52.862;6.602;2023-07-30T04:44:24;16.20;99.90
66328;DHT22;53133;52.862;6.602;2023-07-30T04:46:50;16.20;99.90
66328;DHT22;53133;52.862;6.602;2023-07-30T04:49:15;16.20;99.90
66328;DHT22;53133;52.862;6.602;2023-07-30T04:51:41;16.30;99.90
66328;DHT22;53133;52.862;6.602;2023-07-30T04:54:07;16.30;99.90
66328;DHT22;53133;52.862;6.602;2023-07-30T04:56:32;16.40;99.90
66328;DHT22;53133;52.862;6.602;2023-07-30T04:58:58;16.40;99.90
66328;DHT22;53133;52.862;6.602;2023-07-30T05:01:24;16.40;99.90
66328;DHT22;53133;52.862;6.602;2023-07-30T05:03:50;16.50;99.90
66328;DHT22;53133;52.862;6.602;2023-07-30T05:06:16;16.50;99.90
66328;DHT22;53133;52.862;6.602;2023-07-30T05:08:41;16.50;99.90
66328;DHT22;53133;52.862;6.602;2023-07-30T05:11:07;16.50;99.90
66328;DHT22;53133;52.862;6.602;2023-07-30T05:13:33;16.60;99.90
66328;DHT22;53133;52.862;6.602;2023-07-30T05:15:59;16.60;99.90
66328;DHT22;53133;52.862;6.602;2023-07-30T05:18:24;16.60;99.90
66328;DHT22;53133;52.862;6.602;2023-07-30T05:20:50;16.60;99.90
66328;DHT22;53133;52.862;6.602;2023-07-30T05:23:16;16.60;99.90
66328;DHT22;53133;52.862;6.602;2023-07-30T05:25:41;16.70;99.90
66328;DHT22;53133;52.862;6.602;2023-07-30T05:28:07;16.70;99.90
66328;DHT22;53133;52.862;6.602;2023-07-30T05:30:32;16.70;99.90
66328;DHT22;53133;52.862;6.602;2023-07-30T05:32:58;16.70;99.90
66328;DHT22;53133;52.862;6.602;2023-07-30T05:35:24;16.70;99.90
66328;DHT22;53133;52.862;6.602;2023-07-30T05:37:49;16.80;99.90
66328;DHT22;53133;52.862;6.602;2023-07-30T05:40:15;16.80;99.90
66328;DHT22;53133;52.862;6.602;2023-07-30T05:42:40;16.80;99.90
66328;DHT22;53133;52.862;6.602;2023-07-30T05:45:07;16.80;99.90
66328;DHT22;53133;52.862;6.602;2023-07-30T05:47:33;16.90;99.90
66328;DHT22;53133;52.862;6.602;2023-07-30T05:49:59;16.90;99.90
66328;DHT22;53133;52.862;6.602;2023-07-30T05:52:24;16.90;99.90
66328;DHT22;53133;52.862;6.602;2023-07-30T05:54:50;16.90;99.90
66328;DHT22;53133;52.862;6.602;2023-07-30T05:57:15;16.90;99.90
66328;DHT22;53133;52.862;6.602;2023-07-30T05:59:41;17.00;99.90
66328;DHT22;53133;52.862;6.602;2023-07-30T06:02:07;17.00;99.90
66328;DHT22;53133;52.862;6.602;2023-07-30T06:04:32;17.10;99.90
66328;DHT22;53133;52.862;6.602;2023-07-30T06:06:59;17.10;99.90
66328;DHT22;53133;52.862;6.602;2023-07-30T06:09:26;17.10;99.90
66328;DHT22;53133;52.862;6.602;2023-07-30T06:11:51;17.10;99.90
66328;DHT22;53133;52.862;6.602;2023-07-30T06:14:17;17.10;99.90
66328;DHT22;53133;52.862;6.602;2023-07-30T06:16:42;17.10;99.90
66328;DHT22;53133;52.862;6.602;2023-07-30T06:19:09;17.20;99.90
66328;DHT22;53133;52.862;6.602;2023-07-30T06:21:35;17.20;99.90
66328;DHT22;53133;52.862;6.602;2023-07-30T06:24:01;17.20;99.90
66328;DHT22;53133;52.862;6.602;2023-07-30T06:26:26;17.20;99.90
66328;DHT22;53133;52.862;6.602;2023-07-30T06:28:52;17.30;99.90
66328;DHT22;53133;52.862;6.602;2023-07-30T06:31:17;17.30;99.90
66328;DHT22;53133;52.862;6.602;2023-07-30T06:33:43;17.30;99.90
66328;DHT22;53133;52.862;6.602;2023-07-30T06:36:08;17.30;99.90
66328;DHT22;53133;52.862;6.602;2023-07-30T06:38:34;17.40;99.90
66328;DHT22;53133;52.862;6.602;2023-07-30T06:41:00;17.40;99.90
66328;DHT22;53133;52.862;6.602;2023-07-30T06:43:25;17.40;99.90
66328;DHT22;53133;52.862;6.602;2023-07-30T06:45:52;17.40;99.90
66328;DHT22;53133;52.862;6.602;2023-07-30T06:48:18;17.40;99.90
66328;DHT22;53133;52.862;6.602;2023-07-30T06:50:44;17.50;99.90
66328;DHT22;53133;52.862;6.602;2023-07-30T06:53:09;17.50;99.90
66328;DHT22;53133;52.862;6.602;2023-07-30T06:55:35;17.50;99.90
66328;DHT22;53133;52.862;6.602;2023-07-30T06:58:01;17.50;99.90
66328;DHT22;53133;52.862;6.602;2023-07-30T07:00:26;17.60;99.90
66328;DHT22;53133;52.862;6.602;2023-07-30T07:02:52;17.50;99.90
66328;DHT22;53133;52.862;6.602;2023-07-30T07:05:18;17.60;99.90
66328;DHT22;53133;52.862;6.602;2023-07-30T07:07:44;17.60;99.90
66328;DHT22;53133;52.862;6.602;2023-07-30T07:10:09;17.60;99.90
66328;DHT22;53133;52.862;6.602;2023-07-30T07:12:39;17.70;99.90
66328;DHT22;53133;52.862;6.602;2023-07-30T07:15:05;17.70;99.90
66328;DHT22;53133;52.862;6.602;2023-07-30T07:17:31;17.70;99.90
66328;DHT22;53133;52.862;6.602;2023-07-30T07:19:57;17.70;99.90
66328;DHT22;53133;52.862;6.602;2023-07-30T07:22:23;17.80;99.90
66328;DHT22;53133;52.862;6.602;2023-07-30T07:24:49;17.80;99.90
66328;DHT22;53133;52.862;6.602;2023-07-30T07:27:17;17.90;99.90
66328;DHT22;53133;52.862;6.602;2023-07-30T07:29:43;17.90;99.90
66328;DHT22;53133;52.862;6.602;2023-07-30T07:32:09;18.00;99.90
66328;DHT22;53133;52.862;6.602;2023-07-30T07:34:35;18.00;99.90
66328;DHT22;53133;52.862;6.602;2023-07-30T07:37:01;18.10;99.90
66328;DHT22;53133;52.862;6.602;2023-07-30T07:39:27;18.10;99.90
66328;DHT22;53133;52.862;6.602;2023-07-30T07:41:53;18.20;99.90
66328;DHT22;53133;52.862;6.602;2023-07-30T07:44:18;18.30;99.90
66328;DHT22;53133;52.862;6.602;2023-07-30T07:46:44;18.30;99.90
66328;DHT22;53133;52.862;6.602;2023-07-30T07:49:10;18.30;99.90
66328;DHT22;53133;52.862;6.602;2023-07-30T07:51:38;18.30;99.90
66328;DHT22;53133;52.862;6.602;2023-07-30T07:54:05;18.30;99.90
66328;DHT22;53133;52.862;6.602;2023-07-30T07:56:31;18.30;99.90
66328;DHT22;53133;52.862;6.602;2023-07-30T07:58:57;18.40;99.90
66328;DHT22;53133;52.862;6.602;2023-07-30T08:01:23;18.40;99.90
66328;DHT22;53133;52.862;6.602;2023-07-30T08:03:48;18.50;99.90
66328;DHT22;53133;52.862;6.602;2023-07-30T08:06:14;18.50;99.90
66328;DHT22;53133;52.862;6.602;2023-07-30T08:08:40;18.60;99.90
66328;DHT22;53133;52.862;6.602;2023-07-30T08:11:06;18.70;99.90
66328;DHT22;53133;52.862;6.602;2023-07-30T08:13:33;18.70;99.90
66328;DHT22;53133;52.862;6.602;2023-07-30T08:15:58;18.70;99.90
66328;DHT22;53133;52.862;6.602;2023-07-30T08:18:24;18.80;99.90
66328;DHT22;53133;52.862;6.602;2023-07-30T08:20:50;18.90;99.90
66328;DHT22;53133;52.862;6.602;2023-07-30T08:23:15;18.90;99.90
66328;DHT22;53133;52.862;6.602;2023-07-30T08:25:41;18.90;99.90
66328;DHT22;53133;52.862;6.602;2023-07-30T08:28:07;19.00;99.90
66328;DHT22;53133;52.862;6.602;2023-07-30T08:30:33;19.00;99.90
66328;DHT22;53133;52.862;6.602;2023-07-30T08:32:58;18.90;99.90
66328;DHT22;53133;52.862;6.602;2023-07-30T08:35:24;18.90;99.90
66328;DHT22;53133;52.862;6.602;2023-07-30T08:37:49;19.00;99.90
66328;DHT22;53133;52.862;6.602;2023-07-30T08:40:15;18.90;99.90
66328;DHT22;53133;52.862;6.602;2023-07-30T08:42:41;19.00;99.90
66328;DHT22;53133;52.862;6.602;2023-07-30T08:45:07;18.90;99.90
66328;DHT22;53133;52.862;6.602;2023-07-30T08:47:35;18.90;99.90
66328;DHT22;53133;52.862;6.602;2023-07-30T08:50:01;18.80;99.90
66328;DHT22;53133;52.862;6.602;2023-07-30T08:52:29;18.80;99.90
66328;DHT22;53133;52.862;6.602;2023-07-30T08:54:55;18.70;99.90
66328;DHT22;53133;52.862;6.602;2023-07-30T08:57:22;18.70;99.90
66328;DHT22;53133;52.862;6.602;2023-07-30T08:59:57;18.70;99.90
66328;DHT22;53133;52.862;6.602;2023-07-30T09:02:51;18.70;99.90
66328;DHT22;53133;52.862;6.602;2023-07-30T09:05:17;18.70;99.90
66328;DHT22;53133;52.862;6.602;2023-07-30T09:07:43;18.70;99.90
66328;DHT22;53133;52.862;6.602;2023-07-30T09:10:08;18.70;99.90
66328;DHT22;53133;52.862;6.602;2023-07-30T09:12:35;18.70;99.90
66328;DHT22;53133;52.862;6.602;2023-07-30T09:15:05;18.70;99.90
66328;DHT22;53133;52.862;6.602;2023-07-30T09:17:31;18.70;99.90
66328;DHT22;53133;52.862;6.602;2023-07-30T09:20:02;18.70;99.90
66328;DHT22;53133;52.862;6.602;2023-07-30T09:22:30;18.70;99.90
66328;DHT22;53133;52.862;6.602;2023-07-30T09:25:01;18.70;99.90
66328;DHT22;53133;52.862;6.602;2023-07-30T09:27:28;18.70;99.90
66328;DHT22;53133;52.862;6.602;2023-07-30T09:29:55;18.70;99.90
66328;DHT22;53133;52.862;6.602;2023-07-30T09:32:29;18.70;99.90
66328;DHT22;53133;52.862;6.602;2023-07-30T09:34:55;18.70;99.90
66328;DHT22;53133;52.862;6.602;2023-07-30T09:37:21;18.70;99.90
66328;DHT22;53133;52.862;6.602;2023-07-30T09:39:50;18.70;99.90
66328;DHT22;53133;52.862;6.602;2023-07-30T09:42:15;18.70;99.90
66328;DHT22;53133;52.862;6.602;2023-07-30T09:44:41;18.70;99.90
66328;DHT22;53133;52.862;6.602;2023-07-30T09:47:10;18.60;99.90
66328;DHT22;53133;52.862;6.602;2023-07-30T09:49:37;18.40;99.90
66328;DHT22;53133;52.862;6.602;2023-07-30T09:52:04;18.20;99.90
66328;DHT22;53133;52.862;6.602;2023-07-30T09:54:31;18.10;99.90
66328;DHT22;53133;52.862;6.602;2023-07-30T09:56:57;17.90;99.90
66328;DHT22;53133;52.862;6.602;2023-07-30T09:59:23;17.80;99.90
66328;DHT22;53133;52.862;6.602;2023-07-30T10:01:49;17.60;99.90
66328;DHT22;53133;52.862;6.602;2023-07-30T10:04:18;17.50;99.90
66328;DHT22;53133;52.862;6.602;2023-07-30T10:07:01;17.40;99.90
66328;DHT22;53133;52.862;6.602;2023-07-30T10:09:32;17.40;99.90
66328;DHT22;53133;52.862;6.602;2023-07-30T10:12:00;17.20;99.90
66328;DHT22;53133;52.862;6.602;2023-07-30T10:14:27;17.20;99.90
66328;DHT22;53133;52.862;6.602;2023-07-30T10:16:55;17.20;99.90
66328;DHT22;53133;52.862;6.602;2023-07-30T10:19:25;17.20;99.90
66328;DHT22;53133;52.862;6.602;2023-07-30T10:21:53;17.30;99.90
66328;DHT22;53133;52.862;6.602;2023-07-30T10:24:18;17.30;99.90
66328;DHT22;53133;52.862;6.602;2023-07-30T10:26:44;17.30;99.90
66328;DHT22;53133;52.862;6.602;2023-07-30T10:29:17;17.30;99.90
66328;DHT22;53133;52.862;6.602;2023-07-30T10:34:14;17.50;99.90
66328;DHT22;53133;52.862;6.602;2023-07-30T10:36:48;17.50;99.90
66328;DHT22;53133;52.862;6.602;2023-07-30T10:39:19;17.60;99.90
66328;DHT22;53133;52.862;6.602;2023-07-30T10:41:57;17.70;99.90
66328;DHT22;53133;52.862;6.602;2023-07-30T10:44:33;17.80;99.90
66328;DHT22;53133;52.862;6.602;2023-07-30T10:47:01;17.90;99.90
66328;DHT22;53133;52.862;6.602;2023-07-30T10:49:26;17.90;99.90
66328;DHT22;53133;52.862;6.602;2023-07-30T10:51:54;18.00;99.90
66328;DHT22;53133;52.862;6.602;2023-07-30T10:54:20;18.10;99.90
66328;DHT22;53133;52.862;6.602;2023-07-30T10:56:46;18.20;99.90
66328;DHT22;53133;52.862;6.602;2023-07-30T10:59:14;18.30;99.90
66328;DHT22;53133;52.862;6.602;2023-07-30T11:01:44;18.40;99.90
66328;DHT22;53133;52.862;6.602;2023-07-30T11:04:18;18.50;99.90
66328;DHT22;53133;52.862;6.602;2023-07-30T11:06:45;18.50;99.90
66328;DHT22;53133;52.862;6.602;2023-07-30T11:09:23;18.60;99.90
66328;DHT22;53133;52.862;6.602;2023-07-30T11:11:50;18.70;99.90
66328;DHT22;53133;52.862;6.602;2023-07-30T11:14:17;18.70;99.90
66328;DHT22;53133;52.862;6.602;2023-07-30T11:16:57;18.80;99.90
66328;DHT22;53133;52.862;6.602;2023-07-30T11:19:29;18.90;99.90
66328;DHT22;53133;52.862;6.602;2023-07-30T11:21:56;18.90;99.90
66328;DHT22;53133;52.862;6.602;2023-07-30T11:24:22;18.90;99.90
66328;DHT22;53133;52.862;6.602;2023-07-30T11:27:00;19.00;99.90
66328;DHT22;53133;52.862;6.602;2023-07-30T11:29:26;19.10;99.90
66328;DHT22;53133;52.862;6.602;2023-07-30T11:31:56;19.10;99.90
66328;DHT22;53133;52.862;6.602;2023-07-30T11:34:22;19.20;99.90
66328;DHT22;53133;52.862;6.602;2023-07-30T11:36:48;19.30;99.90
66328;DHT22;53133;52.862;6.602;2023-07-30T11:39:14;19.40;99.90
66328;DHT22;53133;52.862;6.602;2023-07-30T11:41:40;19.40;99.90
66328;DHT22;53133;52.862;6.602;2023-07-30T11:44:06;19.50;99.90
66328;DHT22;53133;52.862;6.602;2023-07-30T11:46:32;19.50;99.90
66328;DHT22;53133;52.862;6.602;2023-07-30T11:49:15;19.50;99.90
66328;DHT22;53133;52.862;6.602;2023-07-30T11:51:42;19.60;99.90
66328;DHT22;53133;52.862;6.602;2023-07-30T11:54:18;19.70;99.90
66328;DHT22;53133;52.862;6.602;2023-07-30T11:56:44;19.70;99.90
66328;DHT22;53133;52.862;6.602;2023-07-30T11:59:10;19.70;99.90
66328;DHT22;53133;52.862;6.602;2023-07-30T12:01:36;19.70;99.90
66328;DHT22;53133;52.862;6.602;2023-07-30T12:04:03;19.70;99.90
66328;DHT22;53133;52.862;6.602;2023-07-30T12:06:43;19.70;99.90
66328;DHT22;53133;52.862;6.602;2023-07-30T12:09:20;19.70;99.90
66328;DHT22;53133;52.862;6.602;2023-07-30T12:11:55;19.60;99.90
66328;DHT22;53133;52.862;6.602;2023-07-30T12:14:28;19.60;99.90
66328;DHT22;53133;52.862;6.602;2023-07-30T12:17:01;19.60;99.90
66328;DHT22;53133;52.862;6.602;2023-07-30T12:19:27;19.60;99.90
66328;DHT22;53133;52.862;6.602;2023-07-30T12:21:53;19.60;99.90
66328;DHT22;53133;52.862;6.602;2023-07-30T12:24:19;19.60;99.90
66328;DHT22;53133;52.862;6.602;2023-07-30T12:26:44;19.60;99.90
66328;DHT22;53133;52.862;6.602;2023-07-30T12:29:10;19.70;99.90
66328;DHT22;53133;52.862;6.602;2023-07-30T12:31:36;19.70;99.90
66328;DHT22;53133;52.862;6.602;2023-07-30T12:34:01;19.70;99.90
66328;DHT22;53133;52.862;6.602;2023-07-30T12:36:28;19.70;99.90
66328;DHT22;53133;52.862;6.602;2023-07-30T12:38:54;19.70;99.90
66328;DHT22;53133;52.862;6.602;2023-07-30T12:41:20;19.80;99.90
66328;DHT22;53133;52.862;6.602;2023-07-30T12:43:54;19.80;99.90
66328;DHT22;53133;52.862;6.602;2023-07-30T12:46:22;19.90;99.90
66328;DHT22;53133;52.862;6.602;2023-07-30T12:48:48;20.00;99.90
66328;DHT22;53133;52.862;6.602;2023-07-30T12:51:14;19.90;99.90
66328;DHT22;53133;52.862;6.602;2023-07-30T12:53:40;19.80;99.90
66328;DHT22;53133;52.862;6.602;2023-07-30T12:56:05;19.80;99.90
66328;DHT22;53133;52.862;6.602;2023-07-30T12:58:31;19.60;99.90
66328;DHT22;53133;52.862;6.602;2023-07-30T13:00:57;19.40;99.90
66328;DHT22;53133;52.862;6.602;2023-07-30T13:03:22;19.20;99.90
66328;DHT22;53133;52.862;6.602;2023-07-30T13:05:48;19.00;99.90
66328;DHT22;53133;52.862;6.602;2023-07-30T13:08:14;18.80;99.90
66328;DHT22;53133;52.862;6.602;2023-07-30T13:10:39;18.70;99.90
66328;DHT22;53133;52.862;6.602;2023-07-30T13:13:05;18.60;99.90
66328;DHT22;53133;52.862;6.602;2023-07-30T13:15:30;18.50;99.90
66328;DHT22;53133;52.862;6.602;2023-07-30T13:17:56;18.60;99.90
66328;DHT22;53133;52.862;6.602;2023-07-30T13:20:22;18.70;99.90
66328;DHT22;53133;52.862;6.602;2023-07-30T13:22:49;18.80;99.90
66328;DHT22;53133;52.862;6.602;2023-07-30T13:25:15;18.90;99.90
66328;DHT22;53133;52.862;6.602;2023-07-30T13:27:41;19.00;99.90
66328;DHT22;53133;52.862;6.602;2023-07-30T13:30:07;19.00;99.90
66328;DHT22;53133;52.862;6.602;2023-07-30T13:32:32;19.00;99.90
66328;DHT22;53133;52.862;6.602;2023-07-30T13:34:58;18.90;99.90
66328;DHT22;53133;52.862;6.602;2023-07-30T13:37:24;18.60;99.90
66328;DHT22;53133;52.862;6.602;2023-07-30T13:39:49;18.40;99.90
66328;DHT22;53133;52.862;6.602;2023-07-30T13:42:15;18.30;99.90
66328;DHT22;53133;52.862;6.602;2023-07-30T13:44:40;18.20;99.90
66328;DHT22;53133;52.862;6.602;2023-07-30T13:47:07;18.10;99.90
66328;DHT22;53133;52.862;6.602;2023-07-30T13:49:33;18.00;99.90
66328;DHT22;53133;52.862;6.602;2023-07-30T13:51:58;18.00;99.90
66328;DHT22;53133;52.862;6.602;2023-07-30T13:54:24;18.00;99.90
66328;DHT22;53133;52.862;6.602;2023-07-30T13:56:49;18.00;99.90
66328;DHT22;53133;52.862;6.602;2023-07-30T13:59:15;18.00;99.90
66328;DHT22;53133;52.862;6.602;2023-07-30T14:01:41;18.10;99.90
66328;DHT22;53133;52.862;6.602;2023-07-30T14:04:06;18.00;99.90
66328;DHT22;53133;52.862;6.602;2023-07-30T14:06:32;18.10;99.90
66328;DHT22;53133;52.862;6.602;2023-07-30T14:08:57;18.10;99.90
66328;DHT22;53133;52.862;6.602;2023-07-30T14:11:26;18.10;99.90
66328;DHT22;53133;52.862;6.602;2023-07-30T14:13:51;18.10;99.90
66328;DHT22;53133;52.862;6.602;2023-07-30T14:16:17;18.10;99.90
66328;DHT22;53133;52.862;6.602;2023-07-30T14:18:43;18.00;99.90
66328;DHT22;53133;52.862;6.602;2023-07-30T14:21:08;18.00;99.90
66328;DHT22;53133;52.862;6.602;2023-07-30T14:23:34;17.90;99.90
66328;DHT22;53133;52.862;6.602;2023-07-30T14:25:59;17.90;99.90
66328;DHT22;53133;52.862;6.602;2023-07-30T14:28:25;17.90;99.90
66328;DHT22;53133;52.862;6.602;2023-07-30T14:30:51;17.90;99.90
66328;DHT22;53133;52.862;6.602;2023-07-30T14:33:16;17.90;99.90
66328;DHT22;53133;52.862;6.602;2023-07-30T14:35:42;18.00;99.90
66328;DHT22;53133;52.862;6.602;2023-07-30T14:38:08;18.10;99.90
66328;DHT22;53133;52.862;6.602;2023-07-30T14:40:35;18.10;99.90
66328;DHT22;53133;52.862;6.602;2023-07-30T14:43:00;18.30;99.90
66328;DHT22;53133;52.862;6.602;2023-07-30T14:45:26;18.40;99.90
66328;DHT22;53133;52.862;6.602;2023-07-30T14:47:51;18.40;99.90
66328;DHT22;53133;52.862;6.602;2023-07-30T14:50:17;18.50;99.90
66328;DHT22;53133;52.862;6.602;2023-07-30T14:52:43;18.50;99.90
66328;DHT22;53133;52.862;6.602;2023-07-30T14:55:09;18.60;99.90
66328;DHT22;53133;52.862;6.602;2023-07-30T14:57:35;18.70;99.90
66328;DHT22;53133;52.862;6.602;2023-07-30T15:00:00;18.70;99.90
66328;DHT22;53133;52.862;6.602;2023-07-30T15:02:27;18.70;99.90
66328;DHT22;53133;52.862;6.602;2023-07-30T15:04:53;18.70;99.90
66328;DHT22;53133;52.862;6.602;2023-07-30T15:07:19;18.80;99.90
66328;DHT22;53133;52.862;6.602;2023-07-30T15:09:45;18.80;99.90
66328;DHT22;53133;52.862;6.602;2023-07-30T15:12:12;18.80;99.90
66328;DHT22;53133;52.862;6.602;2023-07-30T15:14:38;18.80;99.90
66328;DHT22;53133;52.862;6.602;2023-07-30T15:17:03;18.80;99.90
66328;DHT22;53133;52.862;6.602;2023-07-30T15:19:29;18.80;99.90
66328;DHT22;53133;52.862;6.602;2023-07-30T15:21:55;18.80;99.90
66328;DHT22;53133;52.862;6.602;2023-07-30T15:24:21;18.70;99.90
66328;DHT22;53133;52.862;6.602;2023-07-30T15:26:46;18.70;99.90
66328;DHT22;53133;52.862;6.602;2023-07-30T15:29:12;18.70;99.90